sensor_id;sensor_type;location;lat;lon;timestamp;temperature;humidity
45409;DHT22;31162;51.076;3.784;2022-07-04T00:00:15;15.40;99.90
45409;DHT22;31162;51.076;3.784;2022-07-04T00:02:42;15.20;99.90
45409;DHT22;31162;51.076;3.784;2022-07-04T00:05:09;15.10;99.90
45409;DHT22;31162;51.076;3.784;2022-07-04T00:07:47;14.90;99.90
45409;DHT22;31162;51.076;3.784;2022-07-04T00:10:16;14.90;99.90
45409;DHT22;31162;51.076;3.784;2022-07-04T00:12:42;14.80;99.90
45409;DHT22;31162;51.076;3.784;2022-07-04T00:15:09;14.80;99.90
45409;DHT22;31162;51.076;3.784;2022-07-04T00:17:35;14.80;99.90
45409;DHT22;31162;51.076;3.784;2022-07-04T00:20:02;14.80;99.90
45409;DHT22;31162;51.076;3.784;2022-07-04T00:22:30;14.80;99.90
45409;DHT22;31162;51.076;3.784;2022-07-04T00:24:55;14.80;99.90
45409;DHT22;31162;51.076;3.784;2022-07-04T00:27:21;14.70;99.90
45409;DHT22;31162;51.076;3.784;2022-07-04T00:29:47;14.80;99.90
45409;DHT22;31162;51.076;3.784;2022-07-04T00:32:13;14.90;99.90
45409;DHT22;31162;51.076;3.784;2022-07-04T00:34:39;14.80;99.90
45409;DHT22;31162;51.076;3.784;2022-07-04T00:37:04;14.70;99.90
45409;DHT22;31162;51.076;3.784;2022-07-04T00:39:30;14.80;99.90
45409;DHT22;31162;51.076;3.784;2022-07-04T00:41:56;14.80;99.90
45409;DHT22;31162;51.076;3.784;2022-07-04T00:44:22;14.90;99.90
45409;DHT22;31162;51.076;3.784;2022-07-04T00:46:48;14.90;99.90
45409;DHT22;31162;51.076;3.784;2022-07-04T00:49:15;14.90;99.90
45409;DHT22;31162;51.076;3.784;2022-07-04T00:51:43;14.80;99.90
45409;DHT22;31162;51.076;3.784;2022-07-04T00:54:11;14.80;99.90
45409;DHT22;31162;51.076;3.784;2022-07-04T00:56:39;14.70;99.90
45409;DHT22;31162;51.076;3.784;2022-07-04T00:59:05;14.60;99.90
45409;DHT22;31162;51.076;3.784;2022-07-04T01:01:32;14.60;99.90
45409;DHT22;31162;51.076;3.784;2022-07-04T01:03:57;14.50;99.90
45409;DHT22;31162;51.076;3.784;2022-07-04T01:06:23;14.30;99.90
45409;DHT22;31162;51.076;3.784;2022-07-04T01:08:49;14.30;99.90
45409;DHT22;31162;51.076;3.784;2022-07-04T01:11:15;14.20;99.90
45409;DHT22;31162;51.076;3.784;2022-07-04T01:13:42;14.10;99.90
45409;DHT22;31162;51.076;3.784;2022-07-04T01:16:08;14.00;99.90
45409;DHT22;31162;51.076;3.784;2022-07-04T01:18:34;14.10;99.90
45409;DHT22;31162;51.076;3.784;2022-07-04T01:21:00;14.20;99.90
45409;DHT22;31162;51.076;3.784;2022-07-04T01:23:26;14.10;99.90
45409;DHT22;31162;51.076;3.784;2022-07-04T01:25:52;14.20;99.90
45409;DHT22;31162;51.076;3.784;2022-07-04T01:28:22;14.20;99.90
45409;DHT22;31162;51.076;3.784;2022-07-04T01:30:48;14.20;99.90
45409;DHT22;31162;51.076;3.784;2022-07-04T01:33:16;14.20;99.90
45409;DHT22;31162;51.076;3.784;2022-07-04T01:35:45;14.30;99.90
45409;DHT22;31162;51.076;3.784;2022-07-04T01:38:11;14.30;99.90
45409;DHT22;31162;51.076;3.784;2022-07-04T01:40:37;14.40;99.90
45409;DHT22;31162;51.076;3.784;2022-07-04T01:43:02;14.30;99.90
45409;DHT22;31162;51.076;3.784;2022-07-04T01:45:28;14.40;99.90
45409;DHT22;31162;51.076;3.784;2022-07-04T01:47:54;14.30;99.90
45409;DHT22;31162;51.076;3.784;2022-07-04T01:50:20;14.30;99.90
45409;DHT22;31162;51.076;3.784;2022-07-04T01:52:46;14.30;99.90
45409;DHT22;31162;51.076;3.784;2022-07-04T01:55:13;14.20;99.90
45409;DHT22;31162;51.076;3.784;2022-07-04T01:57:39;14.20;99.90
45409;DHT22;31162;51.076;3.784;2022-07-04T02:00:09;14.10;99.90
45409;DHT22;31162;51.076;3.784;2022-07-04T02:02:55;14.10;99.90
45409;DHT22;31162;51.076;3.784;2022-07-04T02:05:20;14.00;99.90
45409;DHT22;31162;51.076;3.784;2022-07-04T02:07:48;13.80;99.90
45409;DHT22;31162;51.076;3.784;2022-07-04T02:10:14;13.80;99.90
45409;DHT22;31162;51.076;3.784;2022-07-04T02:12:39;13.80;99.90
45409;DHT22;31162;51.076;3.784;2022-07-04T02:15:23;13.90;99.90
45409;DHT22;31162;51.076;3.784;2022-07-04T02:17:49;14.10;99.90
45409;DHT22;31162;51.076;3.784;2022-07-04T02:20:15;14.00;99.90
45409;DHT22;31162;51.076;3.784;2022-07-04T02:22:41;14.10;99.90
45409;DHT22;31162;51.076;3.784;2022-07-04T02:25:07;14.00;99.90
45409;DHT22;31162;51.076;3.784;2022-07-04T02:27:33;13.90;99.90
45409;DHT22;31162;51.076;3.784;2022-07-04T02:29:58;13.90;99.90
45409;DHT22;31162;51.076;3.784;2022-07-04T02:32:24;13.90;99.90
45409;DHT22;31162;51.076;3.784;2022-07-04T02:34:50;13.90;99.90
45409;DHT22;31162;51.076;3.784;2022-07-04T02:37:16;13.80;99.90
45409;DHT22;31162;51.076;3.784;2022-07-04T02:39:42;13.80;99.90
45409;DHT22;31162;51.076;3.784;2022-07-04T02:42:08;13.80;99.90
45409;DHT22;31162;51.076;3.784;2022-07-04T02:44:34;13.70;99.90
45409;DHT22;31162;51.076;3.784;2022-07-04T02:47:00;13.80;99.90
45409;DHT22;31162;51.076;3.784;2022-07-04T02:49:26;13.70;99.90
45409;DHT22;31162;51.076;3.784;2022-07-04T02:51:51;13.70;99.90
45409;DHT22;31162;51.076;3.784;2022-07-04T02:54:17;13.70;99.90
45409;DHT22;31162;51.076;3.784;2022-07-04T02:56:43;13.60;99.90
45409;DHT22;31162;51.076;3.784;2022-07-04T02:59:09;13.50;99.90
45409;DHT22;31162;51.076;3.784;2022-07-04T03:01:35;13.50;99.90
45409;DHT22;31162;51.076;3.784;2022-07-04T03:04:00;13.40;99.90
45409;DHT22;31162;51.076;3.784;2022-07-04T03:06:26;13.50;99.90
45409;DHT22;31162;51.076;3.784;2022-07-04T03:08:51;13.60;99.90
45409;DHT22;31162;51.076;3.784;2022-07-04T03:11:18;13.50;99.90
45409;DHT22;31162;51.076;3.784;2022-07-04T03:13:44;13.50;99.90
45409;DHT22;31162;51.076;3.784;2022-07-04T03:16:10;13.50;99.90
45409;DHT22;31162;51.076;3.784;2022-07-04T03:18:36;13.60;99.90
45409;DHT22;31162;51.076;3.784;2022-07-04T03:21:02;13.60;99.90
45409;DHT22;31162;51.076;3.784;2022-07-04T03:23:33;13.50;99.90
45409;DHT22;31162;51.076;3.784;2022-07-04T03:26:00;13.50;99.90
45409;DHT22;31162;51.076;3.784;2022-07-04T03:28:26;13.50;99.90
45409;DHT22;31162;51.076;3.784;2022-07-04T03:30:51;13.50;99.90
45409;DHT22;31162;51.076;3.784;2022-07-04T03:33:17;13.50;99.90
45409;DHT22;31162;51.076;3.784;2022-07-04T03:35:43;13.40;99.90
45409;DHT22;31162;51.076;3.784;2022-07-04T03:38:09;13.50;99.90
45409;DHT22;31162;51.076;3.784;2022-07-04T03:40:34;13.40;99.90
45409;DHT22;31162;51.076;3.784;2022-07-04T03:43:02;13.50;99.90
45409;DHT22;31162;51.076;3.784;2022-07-04T03:45:28;13.60;99.90
45409;DHT22;31162;51.076;3.784;2022-07-04T03:47:54;13.60;99.90
45409;DHT22;31162;51.076;3.784;2022-07-04T03:50:20;13.60;99.90
45409;DHT22;31162;51.076;3.784;2022-07-04T03:52:45;13.50;99.90
45409;DHT22;31162;51.076;3.784;2022-07-04T03:55:12;13.80;99.90
45409;DHT22;31162;51.076;3.784;2022-07-04T03:57:38;13.90;99.90
45409;DHT22;31162;51.076;3.784;2022-07-04T04:00:04;13.90;99.90
45409;DHT22;31162;51.076;3.784;2022-07-04T04:02:30;14.10;99.90
45409;DHT22;31162;51.076;3.784;2022-07-04T04:04:55;14.30;99.90
45409;DHT22;31162;51.076;3.784;2022-07-04T04:07:39;14.30;99.90
45409;DHT22;31162;51.076;3.784;2022-07-04T04:10:06;14.20;99.90
45409;DHT22;31162;51.076;3.784;2022-07-04T04:12:31;14.10;99.90
45409;DHT22;31162;51.076;3.784;2022-07-04T04:14:57;14.00;99.90
45409;DHT22;31162;51.076;3.784;2022-07-04T04:17:23;13.90;99.90
45409;DHT22;31162;51.076;3.784;2022-07-04T04:19:48;14.00;99.90
45409;DHT22;31162;51.076;3.784;2022-07-04T04:22:14;14.10;99.90
45409;DHT22;31162;51.076;3.784;2022-07-04T04:24:40;14.30;99.90
45409;DHT22;31162;51.076;3.784;2022-07-04T04:27:05;14.50;99.90
45409;DHT22;31162;51.076;3.784;2022-07-04T04:29:31;14.70;99.90
45409;DHT22;31162;51.076;3.784;2022-07-04T04:32:00;14.90;99.90
45409;DHT22;31162;51.076;3.784;2022-07-04T04:34:26;15.10;99.90
45409;DHT22;31162;51.076;3.784;2022-07-04T04:36:51;15.00;99.90
45409;DHT22;31162;51.076;3.784;2022-07-04T04:39:17;15.00;99.90
45409;DHT22;31162;51.076;3.784;2022-07-04T04:41:42;15.10;99.90
45409;DHT22;31162;51.076;3.784;2022-07-04T04:44:08;15.20;99.90
45409;DHT22;31162;51.076;3.784;2022-07-04T04:46:34;15.40;99.90
45409;DHT22;31162;51.076;3.784;2022-07-04T04:48:59;15.60;99.90
45409;DHT22;31162;51.076;3.784;2022-07-04T04:51:25;15.80;99.90
45409;DHT22;31162;51.076;3.784;2022-07-04T04:53:50;16.00;99.90
45409;DHT22;31162;51.076;3.784;2022-07-04T04:56:16;16.20;99.90
45409;DHT22;31162;51.076;3.784;2022-07-04T04:58:42;16.40;99.90
45409;DHT22;31162;51.076;3.784;2022-07-04T05:01:07;16.60;99.90
45409;DHT22;31162;51.076;3.784;2022-07-04T05:03:33;16.80;99.90
45409;DHT22;31162;51.076;3.784;2022-07-04T05:05:59;16.90;99.90
45409;DHT22;31162;51.076;3.784;2022-07-04T05:08:24;17.00;99.90
45409;DHT22;31162;51.076;3.784;2022-07-04T05:10:51;17.20;99.90
45409;DHT22;31162;51.076;3.784;2022-07-04T05:13:18;17.40;99.90
45409;DHT22;31162;51.076;3.784;2022-07-04T05:15:44;17.70;99.90
45409;DHT22;31162;51.076;3.784;2022-07-04T05:18:10;17.90;99.90
45409;DHT22;31162;51.076;3.784;2022-07-04T05:20:35;18.20;99.90
45409;DHT22;31162;51.076;3.784;2022-07-04T05:23:01;18.50;99.90
45409;DHT22;31162;51.076;3.784;2022-07-04T05:25:27;18.80;99.90
45409;DHT22;31162;51.076;3.784;2022-07-04T05:27:52;19.10;99.90
45409;DHT22;31162;51.076;3.784;2022-07-04T05:30:18;19.30;99.90
45409;DHT22;31162;51.076;3.784;2022-07-04T05:32:44;19.70;99.90
45409;DHT22;31162;51.076;3.784;2022-07-04T05:35:09;20.20;99.90
45409;DHT22;31162;51.076;3.784;2022-07-04T05:37:35;20.10;99.90
45409;DHT22;31162;51.076;3.784;2022-07-04T05:40:02;20.00;99.90
45409;DHT22;31162;51.076;3.784;2022-07-04T05:42:28;20.10;99.90
45409;DHT22;31162;51.076;3.784;2022-07-04T05:44:54;20.40;99.90
45409;DHT22;31162;51.076;3.784;2022-07-04T05:47:20;20.80;99.90
45409;DHT22;31162;51.076;3.784;2022-07-04T05:49:49;21.10;99.90
45409;DHT22;31162;51.076;3.784;2022-07-04T05:52:15;21.30;99.90
45409;DHT22;31162;51.076;3.784;2022-07-04T05:54:41;21.30;99.90
45409;DHT22;31162;51.076;3.784;2022-07-04T05:57:07;21.30;99.90
45409;DHT22;31162;51.076;3.784;2022-07-04T05:59:32;21.20;99.90
45409;DHT22;31162;51.076;3.784;2022-07-04T06:01:58;21.30;99.90
45409;DHT22;31162;51.076;3.784;2022-07-04T06:04:24;22.00;99.90
45409;DHT22;31162;51.076;3.784;2022-07-04T06:06:50;22.00;99.90
45409;DHT22;31162;51.076;3.784;2022-07-04T06:09:16;22.50;99.90
45409;DHT22;31162;51.076;3.784;2022-07-04T06:11:41;22.60;99.90
45409;DHT22;31162;51.076;3.784;2022-07-04T06:14:07;22.20;99.90
45409;DHT22;31162;51.076;3.784;2022-07-04T06:16:33;22.00;99.90
45409;DHT22;31162;51.076;3.784;2022-07-04T06:18:58;22.20;99.90
45409;DHT22;31162;51.076;3.784;2022-07-04T06:21:24;22.30;99.90
45409;DHT22;31162;51.076;3.784;2022-07-04T06:23:50;22.00;99.90
45409;DHT22;31162;51.076;3.784;2022-07-04T06:26:15;22.20;99.90
45409;DHT22;31162;51.076;3.784;2022-07-04T06:28:41;22.40;99.90
45409;DHT22;31162;51.076;3.784;2022-07-04T06:31:07;22.40;99.90
45409;DHT22;31162;51.076;3.784;2022-07-04T06:33:32;22.30;99.90
45409;DHT22;31162;51.076;3.784;2022-07-04T06:36:18;22.40;99.90
45409;DHT22;31162;51.076;3.784;2022-07-04T06:38:43;22.10;99.90
45409;DHT22;31162;51.076;3.784;2022-07-04T06:41:09;23.20;99.90
45409;DHT22;31162;51.076;3.784;2022-07-04T06:43:36;25.70;99.90
45409;DHT22;31162;51.076;3.784;2022-07-04T06:46:02;28.60;99.90
45409;DHT22;31162;51.076;3.784;2022-07-04T06:48:28;31.00;94.70
45409;DHT22;31162;51.076;3.784;2022-07-04T06:50:54;32.30;90.90
45409;DHT22;31162;51.076;3.784;2022-07-04T06:53:20;33.30;87.20
45409;DHT22;31162;51.076;3.784;2022-07-04T06:55:46;34.20;82.80
45409;DHT22;31162;51.076;3.784;2022-07-04T06:58:11;34.70;79.60
45409;DHT22;31162;51.076;3.784;2022-07-04T07:00:37;35.10;77.20
45409;DHT22;31162;51.076;3.784;2022-07-04T07:03:04;35.50;75.70
45409;DHT22;31162;51.076;3.784;2022-07-04T07:05:30;35.80;74.80
45409;DHT22;31162;51.076;3.784;2022-07-04T07:07:56;35.20;74.40
45409;DHT22;31162;51.076;3.784;2022-07-04T07:10:22;35.90;73.10
45409;DHT22;31162;51.076;3.784;2022-07-04T07:12:48;36.50;72.10
45409;DHT22;31162;51.076;3.784;2022-07-04T07:15:14;36.30;72.10
45409;DHT22;31162;51.076;3.784;2022-07-04T07:17:42;37.10;70.80
45409;DHT22;31162;51.076;3.784;2022-07-04T07:20:08;37.40;69.40
45409;DHT22;31162;51.076;3.784;2022-07-04T07:22:34;37.50;68.90
45409;DHT22;31162;51.076;3.784;2022-07-04T07:24:59;37.50;68.20
45409;DHT22;31162;51.076;3.784;2022-07-04T07:27:26;38.00;67.40
45409;DHT22;31162;51.076;3.784;2022-07-04T07:29:51;38.30;67.40
45409;DHT22;31162;51.076;3.784;2022-07-04T07:32:17;38.40;66.80
45409;DHT22;31162;51.076;3.784;2022-07-04T07:34:43;38.50;66.60
45409;DHT22;31162;51.076;3.784;2022-07-04T07:37:09;38.90;65.40
45409;DHT22;31162;51.076;3.784;2022-07-04T07:39:35;38.70;66.10
45409;DHT22;31162;51.076;3.784;2022-07-04T07:42:00;39.00;66.10
45409;DHT22;31162;51.076;3.784;2022-07-04T07:44:26;39.50;64.90
45409;DHT22;31162;51.076;3.784;2022-07-04T07:46:52;40.20;63.80
45409;DHT22;31162;51.076;3.784;2022-07-04T07:49:17;40.60;63.50
45409;DHT22;31162;51.076;3.784;2022-07-04T07:51:43;40.80;63.10
45409;DHT22;31162;51.076;3.784;2022-07-04T07:54:09;41.20;62.20
45409;DHT22;31162;51.076;3.784;2022-07-04T07:56:34;41.80;61.50
45409;DHT22;31162;51.076;3.784;2022-07-04T07:59:00;42.50;60.80
45409;DHT22;31162;51.076;3.784;2022-07-04T08:01:26;42.60;60.50
45409;DHT22;31162;51.076;3.784;2022-07-04T08:03:51;42.30;59.40
45409;DHT22;31162;51.076;3.784;2022-07-04T08:06:35;42.50;59.40
45409;DHT22;31162;51.076;3.784;2022-07-04T08:09:01;42.30;59.10
45409;DHT22;31162;51.076;3.784;2022-07-04T08:11:27;42.10;58.90
45409;DHT22;31162;51.076;3.784;2022-07-04T08:13:53;41.90;58.90
45409;DHT22;31162;51.076;3.784;2022-07-04T08:16:18;41.70;59.70
45409;DHT22;31162;51.076;3.784;2022-07-04T08:18:44;41.40;59.00
45409;DHT22;31162;51.076;3.784;2022-07-04T08:21:10;40.60;59.00
45409;DHT22;31162;51.076;3.784;2022-07-04T08:23:36;40.30;60.50
45409;DHT22;31162;51.076;3.784;2022-07-04T08:26:02;40.70;60.30
45409;DHT22;31162;51.076;3.784;2022-07-04T08:28:29;41.20;59.30
45409;DHT22;31162;51.076;3.784;2022-07-04T08:30:55;41.70;59.10
45409;DHT22;31162;51.076;3.784;2022-07-04T08:33:22;42.50;58.00
45409;DHT22;31162;51.076;3.784;2022-07-04T08:35:48;42.90;57.50
45409;DHT22;31162;51.076;3.784;2022-07-04T08:38:15;43.60;56.90
45409;DHT22;31162;51.076;3.784;2022-07-04T08:40:41;44.00;56.30
45409;DHT22;31162;51.076;3.784;2022-07-04T08:43:08;42.80;56.70
45409;DHT22;31162;51.076;3.784;2022-07-04T08:45:35;41.70;56.90
45409;DHT22;31162;51.076;3.784;2022-07-04T08:50:31;42.00;56.70
45409;DHT22;31162;51.076;3.784;2022-07-04T08:53:03;42.50;57.40
45409;DHT22;31162;51.076;3.784;2022-07-04T08:55:31;43.40;55.80
45409;DHT22;31162;51.076;3.784;2022-07-04T08:58:16;43.30;54.90
45409;DHT22;31162;51.076;3.784;2022-07-04T09:00:55;39.90;56.50
45409;DHT22;31162;51.076;3.784;2022-07-04T09:03:21;37.50;59.10
45409;DHT22;31162;51.076;3.784;2022-07-04T09:05:48;38.70;59.00
45409;DHT22;31162;51.076;3.784;2022-07-04T09:08:14;39.50;58.20
45409;DHT22;31162;51.076;3.784;2022-07-04T09:10:39;38.80;57.80
45409;DHT22;31162;51.076;3.784;2022-07-04T09:13:08;36.30;60.70
45409;DHT22;31162;51.076;3.784;2022-07-04T09:15:34;35.70;62.00
45409;DHT22;31162;51.076;3.784;2022-07-04T09:18:01;36.50;60.90
45409;DHT22;31162;51.076;3.784;2022-07-04T09:20:28;36.00;61.70
45409;DHT22;31162;51.076;3.784;2022-07-04T09:22:55;35.30;61.50
45409;DHT22;31162;51.076;3.784;2022-07-04T09:25:22;35.30;62.70
45409;DHT22;31162;51.076;3.784;2022-07-04T09:27:53;37.20;60.90
45409;DHT22;31162;51.076;3.784;2022-07-04T09:30:20;39.00;58.10
45409;DHT22;31162;51.076;3.784;2022-07-04T09:32:51;39.00;58.20
45409;DHT22;31162;51.076;3.784;2022-07-04T09:35:25;36.80;59.10
45409;DHT22;31162;51.076;3.784;2022-07-04T09:37:53;34.70;60.80
45409;DHT22;31162;51.076;3.784;2022-07-04T09:40:35;35.00;61.20
45409;DHT22;31162;51.076;3.784;2022-07-04T09:43:19;36.70;60.50
45409;DHT22;31162;51.076;3.784;2022-07-04T09:45:54;36.90;58.70
45409;DHT22;31162;51.076;3.784;2022-07-04T09:48:21;37.70;58.80
45409;DHT22;31162;51.076;3.784;2022-07-04T09:50:46;39.90;57.40
45409;DHT22;31162;51.076;3.784;2022-07-04T09:53:12;40.30;56.20
45409;DHT22;31162;51.076;3.784;2022-07-04T09:55:38;39.50;57.60
45409;DHT22;31162;51.076;3.784;2022-07-04T09:58:09;39.30;57.60
45409;DHT22;31162;51.076;3.784;2022-07-04T10:00:36;38.50;57.60
45409;DHT22;31162;51.076;3.784;2022-07-04T10:03:25;37.90;57.80
45409;DHT22;31162;51.076;3.784;2022-07-04T10:06:10;36.40;58.60
45409;DHT22;31162;51.076;3.784;2022-07-04T10:08:37;35.10;60.00
45409;DHT22;31162;51.076;3.784;2022-07-04T10:11:04;34.80;61.10
45409;DHT22;31162;51.076;3.784;2022-07-04T10:13:30;34.20;62.20
45409;DHT22;31162;51.076;3.784;2022-07-04T10:15:57;33.40;62.10
45409;DHT22;31162;51.076;3.784;2022-07-04T10:18:24;34.90;60.20
45409;DHT22;31162;51.076;3.784;2022-07-04T10:20:51;36.90;59.00
45409;DHT22;31162;51.076;3.784;2022-07-04T10:23:18;38.10;58.00
45409;DHT22;31162;51.076;3.784;2022-07-04T10:25:48;37.60;58.30
45409;DHT22;31162;51.076;3.784;2022-07-04T10:28:15;38.20;57.90
45409;DHT22;31162;51.076;3.784;2022-07-04T10:30:41;37.90;57.00
45409;DHT22;31162;51.076;3.784;2022-07-04T10:33:10;37.20;58.30
45409;DHT22;31162;51.076;3.784;2022-07-04T10:35:52;38.20;57.20
45409;DHT22;31162;51.076;3.784;2022-07-04T10:38:20;39.60;56.10
45409;DHT22;31162;51.076;3.784;2022-07-04T10:45:55;41.00;55.90
45409;DHT22;31162;51.076;3.784;2022-07-04T10:48:22;41.90;53.90
45409;DHT22;31162;51.076;3.784;2022-07-04T10:51:05;40.30;54.70
45409;DHT22;31162;51.076;3.784;2022-07-04T10:53:33;39.10;55.90
45409;DHT22;31162;51.076;3.784;2022-07-04T10:58:46;36.20;58.00
45409;DHT22;31162;51.076;3.784;2022-07-04T11:01:16;37.00;56.80
45409;DHT22;31162;51.076;3.784;2022-07-04T11:03:50;37.50;57.60
45409;DHT22;31162;51.076;3.784;2022-07-04T11:09:18;40.60;55.10
45409;DHT22;31162;51.076;3.784;2022-07-04T11:11:58;40.90;53.80
45409;DHT22;31162;51.076;3.784;2022-07-04T11:14:31;41.90;53.60
45409;DHT22;31162;51.076;3.784;2022-07-04T11:16:57;43.20;52.70
45409;DHT22;31162;51.076;3.784;2022-07-04T11:19:23;43.10;52.20
45409;DHT22;31162;51.076;3.784;2022-07-04T11:21:48;43.20;52.90
45409;DHT22;31162;51.076;3.784;2022-07-04T11:24:14;42.50;53.50
45409;DHT22;31162;51.076;3.784;2022-07-04T11:26:40;40.40;54.20
45409;DHT22;31162;51.076;3.784;2022-07-04T11:29:05;38.70;56.30
45409;DHT22;31162;51.076;3.784;2022-07-04T11:31:39;37.60;57.30
45409;DHT22;31162;51.076;3.784;2022-07-04T11:34:05;36.90;56.30
45409;DHT22;31162;51.076;3.784;2022-07-04T11:36:30;36.70;56.00
45409;DHT22;31162;51.076;3.784;2022-07-04T11:39:02;37.90;55.90
45409;DHT22;31162;51.076;3.784;2022-07-04T11:41:31;39.30;54.90
45409;DHT22;31162;51.076;3.784;2022-07-04T11:44:21;40.00;55.20
45409;DHT22;31162;51.076;3.784;2022-07-04T11:49:45;40.30;53.80
45409;DHT22;31162;51.076;3.784;2022-07-04T11:52:11;40.10;54.40
45409;DHT22;31162;51.076;3.784;2022-07-04T11:54:39;39.10;55.40
45409;DHT22;31162;51.076;3.784;2022-07-04T11:57:17;39.40;55.00
45409;DHT22;31162;51.076;3.784;2022-07-04T11:59:50;39.80;55.20
45409;DHT22;31162;51.076;3.784;2022-07-04T12:02:18;40.40;54.10
45409;DHT22;31162;51.076;3.784;2022-07-04T12:04:44;40.30;53.50
45409;DHT22;31162;51.076;3.784;2022-07-04T12:07:11;39.60;54.90
45409;DHT22;31162;51.076;3.784;2022-07-04T12:09:38;40.20;54.30
45409;DHT22;31162;51.076;3.784;2022-07-04T12:12:04;40.30;53.00
45409;DHT22;31162;51.076;3.784;2022-07-04T12:14:30;38.90;54.70
45409;DHT22;31162;51.076;3.784;2022-07-04T12:17:12;36.80;55.40
45409;DHT22;31162;51.076;3.784;2022-07-04T12:19:48;35.10;58.20
45409;DHT22;31162;51.076;3.784;2022-07-04T12:24:58;35.20;58.10
45409;DHT22;31162;51.076;3.784;2022-07-04T12:27:25;34.90;58.90
45409;DHT22;31162;51.076;3.784;2022-07-04T12:29:53;34.80;58.80
45409;DHT22;31162;51.076;3.784;2022-07-04T12:32:19;34.40;59.30
45409;DHT22;31162;51.076;3.784;2022-07-04T12:34:45;33.80;59.70
45409;DHT22;31162;51.076;3.784;2022-07-04T12:37:13;33.40;60.00
45409;DHT22;31162;51.076;3.784;2022-07-04T12:39:41;32.80;60.20
45409;DHT22;31162;51.076;3.784;2022-07-04T12:44:36;31.50;62.60
45409;DHT22;31162;51.076;3.784;2022-07-04T12:47:03;31.30;63.00
45409;DHT22;31162;51.076;3.784;2022-07-04T12:49:30;31.60;64.40
45409;DHT22;31162;51.076;3.784;2022-07-04T12:52:06;31.90;63.60
45409;DHT22;31162;51.076;3.784;2022-07-04T12:54:32;31.70;63.10
45409;DHT22;31162;51.076;3.784;2022-07-04T12:59:31;31.10;64.10
45409;DHT22;31162;51.076;3.784;2022-07-04T13:01:56;30.90;65.20
45409;DHT22;31162;51.076;3.784;2022-07-04T13:04:22;31.00;64.20
45409;DHT22;31162;51.076;3.784;2022-07-04T13:06:48;31.00;65.50
45409;DHT22;31162;51.076;3.784;2022-07-04T13:09:13;30.80;65.90
45409;DHT22;31162;51.076;3.784;2022-07-04T13:11:39;30.40;65.00
45409;DHT22;31162;51.076;3.784;2022-07-04T13:14:23;30.40;66.40
45409;DHT22;31162;51.076;3.784;2022-07-04T13:16:49;30.80;64.60
45409;DHT22;31162;51.076;3.784;2022-07-04T13:19:14;31.00;64.80
45409;DHT22;31162;51.076;3.784;2022-07-04T13:21:42;31.40;64.50
45409;DHT22;31162;51.076;3.784;2022-07-04T13:24:08;31.80;63.60
45409;DHT22;31162;51.076;3.784;2022-07-04T13:26:34;31.60;63.70
45409;DHT22;31162;51.076;3.784;2022-07-04T13:29:00;31.60;64.00
45409;DHT22;31162;51.076;3.784;2022-07-04T13:31:27;31.30;65.00
45409;DHT22;31162;51.076;3.784;2022-07-04T13:33:53;30.90;64.30
45409;DHT22;31162;51.076;3.784;2022-07-04T13:36:19;30.70;63.50
45409;DHT22;31162;51.076;3.784;2022-07-04T13:38:44;30.40;63.70
45409;DHT22;31162;51.076;3.784;2022-07-04T13:41:10;30.00;65.60
45409;DHT22;31162;51.076;3.784;2022-07-04T13:43:36;29.90;66.70
45409;DHT22;31162;51.076;3.784;2022-07-04T13:46:02;29.70;65.40
45409;DHT22;31162;51.076;3.784;2022-07-04T13:48:28;29.60;65.60
45409;DHT22;31162;51.076;3.784;2022-07-04T13:50:54;29.80;65.40
45409;DHT22;31162;51.076;3.784;2022-07-04T13:53:19;30.00;65.30
45409;DHT22;31162;51.076;3.784;2022-07-04T13:55:46;30.30;64.70
45409;DHT22;31162;51.076;3.784;2022-07-04T13:58:12;30.60;64.40
45409;DHT22;31162;51.076;3.784;2022-07-04T14:00:38;30.70;63.40
45409;DHT22;31162;51.076;3.784;2022-07-04T14:03:06;30.80;64.10
45409;DHT22;31162;51.076;3.784;2022-07-04T14:05:33;31.20;64.10
45409;DHT22;31162;51.076;3.784;2022-07-04T14:07:59;31.40;63.30
45409;DHT22;31162;51.076;3.784;2022-07-04T14:10:25;31.40;63.20
45409;DHT22;31162;51.076;3.784;2022-07-04T14:12:51;31.50;63.10
45409;DHT22;31162;51.076;3.784;2022-07-04T14:15:16;31.20;63.70
45409;DHT22;31162;51.076;3.784;2022-07-04T14:17:42;31.10;64.10
45409;DHT22;31162;51.076;3.784;2022-07-04T14:20:09;31.20;63.50
45409;DHT22;31162;51.076;3.784;2022-07-04T14:22:36;31.30;63.00
45409;DHT22;31162;51.076;3.784;2022-07-04T14:25:03;31.10;63.30
45409;DHT22;31162;51.076;3.784;2022-07-04T14:27:29;30.40;65.40
45409;DHT22;31162;51.076;3.784;2022-07-04T14:29:55;30.30;64.10
45409;DHT22;31162;51.076;3.784;2022-07-04T14:32:20;30.40;63.80
45409;DHT22;31162;51.076;3.784;2022-07-04T14:34:46;30.60;65.00
45409;DHT22;31162;51.076;3.784;2022-07-04T14:37:12;30.60;64.50
45409;DHT22;31162;51.076;3.784;2022-07-04T14:39:37;30.60;65.40
45409;DHT22;31162;51.076;3.784;2022-07-04T14:42:03;30.80;64.00
45409;DHT22;31162;51.076;3.784;2022-07-04T14:44:29;31.00;63.30
45409;DHT22;31162;51.076;3.784;2022-07-04T14:46:55;31.10;63.70
45409;DHT22;31162;51.076;3.784;2022-07-04T14:49:20;31.10;64.00
45409;DHT22;31162;51.076;3.784;2022-07-04T14:51:47;31.20;63.50
45409;DHT22;31162;51.076;3.784;2022-07-04T14:54:12;31.20;63.70
45409;DHT22;31162;51.076;3.784;2022-07-04T14:56:38;31.20;62.90
45409;DHT22;31162;51.076;3.784;2022-07-04T14:59:04;30.90;64.50
45409;DHT22;31162;51.076;3.784;2022-07-04T15:01:30;30.80;64.20
45409;DHT22;31162;51.076;3.784;2022-07-04T15:03:56;30.70;63.60
45409;DHT22;31162;51.076;3.784;2022-07-04T15:06:22;30.60;66.90
45409;DHT22;31162;51.076;3.784;2022-07-04T15:08:48;29.60;69.80
45409;DHT22;31162;51.076;3.784;2022-07-04T15:11:13;28.80;71.00
45409;DHT22;31162;51.076;3.784;2022-07-04T15:13:39;27.90;72.20
45409;DHT22;31162;51.076;3.784;2022-07-04T15:16:05;27.60;73.00
45409;DHT22;31162;51.076;3.784;2022-07-04T15:18:33;27.30;73.70
45409;DHT22;31162;51.076;3.784;2022-07-04T15:20:58;27.20;73.80
45409;DHT22;31162;51.076;3.784;2022-07-04T15:23:43;27.00;74.30
45409;DHT22;31162;51.076;3.784;2022-07-04T15:26:27;27.10;74.10
45409;DHT22;31162;51.076;3.784;2022-07-04T15:28:53;26.80;74.60
45409;DHT22;31162;51.076;3.784;2022-07-04T15:31:19;27.00;75.60
45409;DHT22;31162;51.076;3.784;2022-07-04T15:33:44;27.20;74.30
45409;DHT22;31162;51.076;3.784;2022-07-04T15:36:10;27.10;73.60
45409;DHT22;31162;51.076;3.784;2022-07-04T15:38:36;26.90;73.60
45409;DHT22;31162;51.076;3.784;2022-07-04T15:41:02;27.00;74.50
45409;DHT22;31162;51.076;3.784;2022-07-04T15:43:31;26.70;74.20
45409;DHT22;31162;51.076;3.784;2022-07-04T15:45:58;26.70;74.80
45409;DHT22;31162;51.076;3.784;2022-07-04T15:48:25;26.40;75.30
45409;DHT22;31162;51.076;3.784;2022-07-04T15:50:51;26.50;75.80
45409;DHT22;31162;51.076;3.784;2022-07-04T15:53:16;26.80;75.30